CheckWX is a tool to help pilots better visualize weather data.  It is not intended as a substitute for an official pre-flight weather briefing.

20:10:45 UTC

EPMO METAR
Modlin Airport
Warsaw, Poland
Current

11 mins ago

EPMO 232000Z 11011KT CAVOK 15/M03 Q1019
Observed
Apr-23 @ 20:00 UTC
Wind
  • 110° at 11 KTS
Visibility
10,000+ meters
Flight Rules
VFR
Cloud Levels
  • Clear skies
Temperature
15°C / 59°F
Dewpoint
-3°C / 27°F
Humidity
29%
Altimeter
30.09" Hg
Pressure
1018.92 hPa
Previous

41 mins ago

EPMO 231930Z 11010KT 080V140 CAVOK 15/M04 Q1019
Observed
Apr-23 @ 19:30 UTC
Wind
  • 110° at 10 KTS
Visibility
10,000+ meters
Flight Rules
VFR
Cloud Levels
  • Clear skies
Temperature
15°C / 59°F
Dewpoint
-4°C / 25°F
Humidity
27%
Altimeter
30.09" Hg
Pressure
1018.92 hPa
Previous

1 hour ago

EPMO 231900Z 11010KT 090V150 CAVOK 16/M04 Q1019
Observed
Apr-23 @ 19:00 UTC
Wind
  • 110° at 10 KTS
Visibility
10,000+ meters
Flight Rules
VFR
Cloud Levels
  • Clear skies
Temperature
16°C / 61°F
Dewpoint
-4°C / 25°F
Humidity
25%
Altimeter
30.09" Hg
Pressure
1018.92 hPa